Sincere Salute — 7JNA — position and weather

sailwx.info

Track history (hours):
 
Tides and Currents Weather Stations Pressure Air Temp Water Temp Dewpoint Dewpoint Depression Visibility Wind Speed Wind Dir Waves Ship Positions

Sincere Salute

Last reported at 2018-Mar-12 00:07 UTC. Time now 2018-May-28 01:23 UTC.
Position N 34°59' E 136°41'.
Warning: this ship's position is months out of date.

Length 228 m; draft 7.9 m.

Type: Ship. MMSI: 432883000.

Date/timePositionNaut miles runAvg speedWind from/ knotsBaromVisibWave heightAir tempDewpointWater temp
2018-Mar-12 00:07N 34°59' E 136°41'0 0.0
2018-Mar-11 23:58N 34°59' E 136°41'0 0.0
2018-Mar-11 23:28N 34°59' E 136°41'0 0.0
2018-Mar-11 22:58N 34°59' E 136°41'0 0.0
2018-Mar-11 22:19N 34°59' E 136°41'0 0.0
2018-Mar-11 21:55N 34°59' E 136°41'0 0.4
2018-Mar-11 21:31N 34°59' E 136°41'2 3.8
2018-Mar-11 21:00N 34°58' E 136°43'4 8.1
2018-Mar-11 20:31N 34°54' E 136°43'510.3
2018-Mar-11 20:00N 34°50' E 136°46'510.2
2018-Mar-11 19:31N 34°45' E 136°49'510.5
2018-Mar-11 19:00N 34°41' E 136°52'810.2
2018-Mar-11 18:14N 34°35' E 136°59'210.1
2018-Mar-11 18:01N 34°33' E 137°01'6 8.7
2018-Mar-11 17:16N 34°28' E 137°05'12 5.3
2018-Mar-11 14:59N 34°16' E 137°05'261 8.6
2018-Mar-10 08:39N 33°17' E 131°59'914.4
2018-Mar-10 08:02N 33°25' E 131°55'115.0
2018-Mar-10 07:57N 33°26' E 131°54'715.1
2018-Mar-10 07:30N 33°33' E 131°52'715.0
2018-Mar-10 07:00N 33°40' E 131°50'714.8
2018-Mar-10 06:30N 33°47' E 131°47'714.5
2018-Mar-10 06:00N 33°54' E 131°45'612.0
2018-Mar-10 05:30N 34°00' E 131°45'2 3.7
2018-Mar-10 04:59N 34°02' E 131°47'0 0.0
2018-Mar-10 02:49N 34°02' E 131°47'0 0.0
2018-Mar-10 01:19N 34°02' E 131°47'0 0.0
2018-Mar-10 00:49N 34°02' E 131°47'0 0.0
2018-Mar-09 23:37N 34°02' E 131°47'0 0.0
2018-Mar-09 23:25N 34°02' E 131°47'0 0.0
2018-Mar-09 21:37N 34°02' E 131°47'0 0.0
2018-Mar-09 21:25N 34°02' E 131°47'0 0.0
2018-Mar-09 20:55N 34°02' E 131°47'0 0.0
2018-Mar-09 19:43N 34°02' E 131°47'0 0.0
2018-Mar-09 19:13N 34°02' E 131°47'0 0.0
2018-Mar-09 18:55N 34°02' E 131°47'0 0.0
2018-Mar-09 18:25N 34°02' E 131°47'0 0.0
2018-Mar-09 17:07N 34°02' E 131°47'0 0.0
2018-Mar-09 16:37N 34°02' E 131°47'0 0.0
2018-Mar-09 16:13N 34°02' E 131°47'0 0.0
2018-Mar-09 15:49N 34°02' E 131°47'0 0.0
2018-Mar-09 15:19N 34°02' E 131°47'0 0.0
2018-Mar-09 14:55N 34°02' E 131°47'0 0.0
2018-Mar-09 14:25N 34°02' E 131°47'0 0.0
2018-Mar-09 13:25N 34°02' E 131°47'0 0.0
2018-Mar-09 12:19N 34°02' E 131°47'0 0.0
2018-Mar-09 11:49N 34°02' E 131°47'0 0.0
2018-Mar-09 11:25N 34°02' E 131°47'0 0.0
2018-Mar-09 09:49N 34°02' E 131°47'0 0.0
2018-Mar-09 08:55N 34°02' E 131°47'0 0.0
2018-Mar-09 08:25N 34°02' E 131°47'0 0.0
2018-Mar-09 07:55N 34°02' E 131°47'0 0.0
2018-Mar-09 07:25N 34°02' E 131°47'0 0.0
2018-Mar-09 06:49N 34°02' E 131°47'0 0.0
2018-Mar-09 06:25N 34°02' E 131°47'0 0.0
2018-Mar-09 05:55N 34°02' E 131°47'0 0.0
2018-Mar-09 05:13N 34°02' E 131°47'0 0.0
2018-Mar-09 04:55N 34°02' E 131°47'0 0.0
2018-Mar-09 03:13N 34°02' E 131°47'0 0.0
2018-Mar-09 02:55N 34°02' E 131°47'0 0.0
2018-Mar-09 02:25N 34°02' E 131°47'0 0.0
2018-Mar-09 01:55N 34°02' E 131°47'0 0.0
2018-Mar-09 01:25N 34°02' E 131°47'0 0.0
2018-Mar-09 00:31N 34°02' E 131°47'0 0.0
2018-Mar-09 00:19N 34°02' E 131°47'0 0.0
2018-Mar-08 23:49N 34°02' E 131°47'0 0.0
2018-Mar-08 23:13N 34°02' E 131°47'0 0.0
2018-Mar-08 22:37N 34°02' E 131°47'0 0.0
2018-Mar-08 22:07N 34°02' E 131°47'0 0.0
2018-Mar-08 21:49N 34°02' E 131°47'0 0.0
2018-Mar-08 21:25N 34°02' E 131°47'0 0.0
2018-Mar-08 20:25N 34°02' E 131°47'0 0.0
2018-Mar-07 21:13N 34°02' E 131°47'0 0.0
2018-Mar-07 20:55N 34°02' E 131°47'0 0.0
2018-Mar-07 20:07N 34°02' E 131°47'0 0.0
2018-Mar-07 19:37N 34°02' E 131°47'0 0.0
2018-Mar-07 19:25N 34°02' E 131°47'0 0.0
2018-Mar-07 17:01N 34°02' E 131°47'0 0.0
2018-Mar-07 16:55N 34°02' E 131°47'0 0.0
2018-Mar-07 14:37N 34°02' E 131°47'0 0.0
2018-Mar-07 14:25N 34°02' E 131°47'0 0.0
2018-Mar-07 13:55N 34°02' E 131°47'0 0.0
2018-Mar-07 13:01N 34°02' E 131°47'0 0.0
2018-Mar-07 12:01N 34°02' E 131°47'0 0.0
2018-Mar-07 11:55N 34°02' E 131°47'0 0.0
2018-Mar-07 11:19N 34°02' E 131°47'0 0.0
2018-Mar-07 10:55N 34°02' E 131°47'0 0.0
2018-Mar-07 10:01N 34°02' E 131°47'0 0.0
2018-Mar-07 09:43N 34°02' E 131°47'0 0.0
2018-Mar-07 09:25N 34°02' E 131°47'0 0.0
2018-Mar-07 07:37N 34°02' E 131°47'0 0.0
2018-Mar-07 07:13N 34°02' E 131°47'0 0.0
2018-Mar-07 06:59N 34°02' E 131°47'2 4.1
2018-Mar-07 06:30N 34°00' E 131°45'2 4.8
2018-Mar-07 06:00N 33°58' E 131°46'0 0.1
2018-Mar-07 05:30N 33°58' E 131°46'0 0.1
2018-Mar-07 04:57N 33°58' E 131°46'0 0.1
2018-Mar-07 04:27N 33°58' E 131°46'0 0.1
2018-Mar-07 03:33N 33°58' E 131°46'0 0.0
2018-Mar-07 03:27N 33°58' E 131°46'0 0.0
2018-Mar-07 01:57N 33°58' E 131°46'0 0.0
2018-Mar-07 01:18N 33°58' E 131°46'0 0.0
2018-Mar-07 00:57N 33°58' E 131°46'0 0.0
2018-Mar-07 00:27N 33°58' E 131°46'0 0.0
2018-Mar-06 23:45N 33°58' E 131°46'0 0.0
2018-Mar-06 23:27N 33°58' E 131°46'0 0.0
2018-Mar-06 22:57N 33°58' E 131°46'0 0.0
2018-Mar-06 22:27N 33°58' E 131°46'0 0.0
2018-Mar-06 21:57N 33°58' E 131°46'0 0.0
2018-Mar-06 21:30N 33°58' E 131°46'0 0.1
2018-Mar-06 20:42N 33°58' E 131°46'0 0.3
2018-Mar-06 20:30N 33°58' E 131°46'0 0.1
2018-Mar-06 19:39N 33°58' E 131°46'0 0.0
2018-Mar-06 19:27N 33°58' E 131°46'0 0.0
2018-Mar-06 19:00N 33°58' E 131°46'0 0.0
2018-Mar-06 18:30N 33°58' E 131°46'0 0.0
2018-Mar-06 17:57N 33°58' E 131°46'0 0.0
2018-Mar-06 17:27N 33°58' E 131°46'0 0.0
2018-Mar-06 16:57N 33°58' E 131°46'0 0.0
2018-Mar-06 16:27N 33°58' E 131°46'0 0.0
2018-Mar-06 15:57N 33°58' E 131°46'0 0.2
2018-Mar-06 15:30N 33°58' E 131°46'0 0.1
2018-Mar-06 14:57N 33°58' E 131°46'0 0.1
2018-Mar-06 14:30N 33°58' E 131°46'0 0.0
2018-Mar-06 13:57N 33°58' E 131°46'0 0.1
2018-Mar-06 13:15N 33°58' E 131°46'0 0.0
2018-Mar-06 12:57N 33°58' E 131°46'0 0.1
2018-Mar-06 11:57N 33°58' E 131°46'0 0.1
2018-Mar-06 11:18N 33°58' E 131°46'0 0.0
2018-Mar-06 11:00N 33°58' E 131°46'0 0.1
2018-Mar-06 10:27N 33°58' E 131°46'0 0.1
2018-Mar-06 09:51N 33°58' E 131°46'0 0.1
2018-Mar-06 09:30N 33°58' E 131°46'0 0.1
2018-Mar-06 09:00N 33°58' E 131°46'0 0.0
2018-Mar-06 08:27N 33°58' E 131°46'0 0.1
2018-Mar-06 07:54N 33°58' E 131°46'0 0.0
2018-Mar-06 07:27N 33°58' E 131°46'0 0.0
2018-Mar-06 06:57N 33°58' E 131°46'0 0.0
2018-Mar-06 06:30N 33°58' E 131°46'0 0.0
2018-Mar-06 05:54N 33°58' E 131°46'0 0.1
2018-Mar-06 05:30N 33°58' E 131°46'0 0.0
2018-Mar-06 05:00N 33°58' E 131°46'0 0.0
2018-Mar-06 04:30N 33°58' E 131°46'0 0.0
2018-Mar-06 04:00N 33°58' E 131°46'0 0.0
2018-Mar-06 03:30N 33°58' E 131°46'0 0.1
2018-Mar-06 02:57N 33°58' E 131°46'0 0.0
2018-Mar-06 02:30N 33°58' E 131°46'0 0.1
2018-Mar-06 01:57N 33°58' E 131°46'0 0.1
2018-Mar-06 01:27N 33°58' E 131°46'0 0.1
2018-Mar-06 00:57N 33°58' E 131°46'0 0.0
2018-Mar-06 00:09N 33°58' E 131°46'0 0.0
2018-Mar-05 23:57N 33°58' E 131°46'0 0.0
2018-Mar-05 23:27N 33°58' E 131°46'0 0.1
2018-Mar-05 22:57N 33°58' E 131°46'0 0.2
2018-Mar-05 22:27N 33°58' E 131°46'0 0.1
2018-Mar-05 21:57N 33°58' E 131°46'0 0.0
2018-Mar-05 21:21N 33°58' E 131°46'0 0.0
2018-Mar-05 20:57N 33°58' E 131°46'0 0.1
2018-Mar-05 20:27N 33°58' E 131°46'0 0.0
2018-Mar-05 20:00N 33°58' E 131°46'0 0.1
2018-Mar-05 19:30N 33°58' E 131°46'0 0.0
2018-Mar-05 19:00N 33°58' E 131°46'0 0.0
2018-Mar-05 18:30N 33°58' E 131°46'0 0.0
2018-Mar-05 17:57N 33°58' E 131°46'0 0.0
2018-Mar-05 17:27N 33°58' E 131°46'0 0.0
2018-Mar-05 16:57N 33°58' E 131°46'0 0.1
2018-Mar-05 16:27N 33°58' E 131°46'0 0.0
2018-Mar-05 15:57N 33°58' E 131°46'0 0.0
2018-Mar-05 15:30N 33°58' E 131°46'0 0.1
2018-Mar-05 14:57N 33°58' E 131°46'0 0.1
2018-Mar-05 14:27N 33°58' E 131°46'0 0.1
2018-Mar-05 13:57N 33°58' E 131°46'0 0.0
2018-Mar-05 13:30N 33°58' E 131°46'0 0.0
2018-Mar-05 12:57N 33°58' E 131°46'0 0.0
2018-Mar-05 12:27N 33°58' E 131°46'0 0.0
2018-Mar-05 11:57N 33°58' E 131°46'0 0.0
2018-Mar-05 11:27N 33°58' E 131°46'0 0.0
2018-Mar-05 10:57N 33°58' E 131°46'0 0.1
2018-Mar-05 10:30N 33°58' E 131°46'0 0.2
2018-Mar-05 09:57N 33°58' E 131°46'0 0.1
2018-Mar-05 09:27N 33°58' E 131°46'0 0.1
2018-Mar-05 08:48N 33°58' E 131°46'0 0.0
2018-Mar-05 08:30N 33°58' E 131°46'0 0.0
2018-Mar-05 07:57N 33°58' E 131°46'0 0.0
2018-Mar-05 07:27N 33°58' E 131°46'0 0.1
2018-Mar-05 06:54N 33°58' E 131°46'0 0.0
2018-Mar-05 06:27N 33°58' E 131°46'0 0.1
2018-Mar-05 05:57N 33°58' E 131°46'0 0.0
2018-Mar-05 05:21N 33°58' E 131°46'0 0.0
2018-Mar-05 04:57N 33°58' E 131°46'0 0.1
2018-Mar-05 04:30N 33°58' E 131°46'0 0.0
2018-Mar-05 03:57N 33°58' E 131°46'0 0.3
2018-Mar-05 03:30N 33°58' E 131°46'0 0.2
2018-Mar-05 02:57N 33°58' E 131°46'0 0.2
2018-Mar-05 02:30N 33°58' E 131°46'0 0.0
2018-Mar-05 02:00N 33°58' E 131°46'0 0.2
2018-Mar-05 01:21N 33°58' E 131°46'0 0.0
2018-Mar-04 22:51N 33°58' E 131°46'0 0.0
2018-Mar-04 22:21N 33°58' E 131°46'0 0.0
2018-Mar-04 21:57N 33°58' E 131°46'0 0.0
2018-Mar-04 19:03N 33°58' E 131°46'0 0.0
2018-Mar-04 18:57N 33°58' E 131°46'0 0.0
2018-Mar-04 18:09N 33°58' E 131°46'0 0.2
2018-Mar-04 17:51N 33°58' E 131°46'0 0.0
2018-Mar-04 08:21N 33°58' E 131°46'0 0.1
2018-Mar-04 06:51N 33°58' E 131°46'0 0.3
2018-Mar-04 06:27N 33°58' E 131°46'0 0.1
2018-Mar-04 05:57N 33°58' E 131°46'0 0.0
2018-Mar-04 05:27N 33°58' E 131°46'0 0.0
2018-Mar-04 04:57N 33°58' E 131°46'0 0.1
2018-Mar-04 04:27N 33°58' E 131°46'0 0.1
2018-Mar-04 03:45N 33°58' E 131°46'0 0.0
2018-Mar-04 03:15N 33°58' E 131°46'0 0.2
2018-Mar-04 02:57N 33°58' E 131°46'0 0.2
2018-Mar-04 02:27N 33°58' E 131°46'0 0.0
2018-Mar-03 22:03N 33°58' E 131°46'0 0.5
2018-Mar-03 21:57N 33°58' E 131°46'0 0.0
2018-Mar-03 21:27N 33°58' E 131°46'0 0.0
2018-Mar-03 20:57N 33°58' E 131°46'0 0.0
2018-Mar-03 20:09N 33°58' E 131°46'0 0.3
2018-Mar-03 19:57N 33°58' E 131°46'0 0.3
2018-Mar-03 19:27N 33°58' E 131°46'0 0.1
2018-Mar-03 18:57N 33°58' E 131°46'0 0.0
2018-Mar-03 18:30N 33°58' E 131°46'0 0.0
2018-Mar-03 17:45N 33°58' E 131°46'0 0.0
2018-Mar-03 17:27N 33°58' E 131°46'0 0.0
2018-Mar-03 16:57N 33°58' E 131°46'0 0.1
2018-Mar-03 16:27N 33°58' E 131°46'0 0.0
2018-Mar-03 15:57N 33°58' E 131°46'0 0.1
2018-Mar-03 15:18N 33°58' E 131°46'0 0.3
2018-Mar-03 15:00N 33°58' E 131°46'0 0.1
2018-Mar-03 14:15N 33°58' E 131°46'0 0.2
2018-Mar-03 13:57N 33°58' E 131°46'0 0.2
2018-Mar-03 13:28N 33°58' E 131°46'0 0.0
2018-Mar-03 12:06N 33°58' E 131°46'0 0.0
2018-Mar-03 12:00N 33°58' E 131°46'0 0.0
2018-Mar-03 11:30N 33°58' E 131°46'0 0.0
2018-Mar-03 11:00N 33°58' E 131°46'0 0.0
2018-Mar-03 10:30N 33°58' E 131°46'0 0.0
2018-Mar-03 10:00N 33°58' E 131°46'0 0.9
2018-Mar-03 09:30N 33°58' E 131°46'4 7.7
2018-Mar-03 09:00N 33°54' E 131°49'714.1
2018-Mar-03 08:30N 33°49' E 131°54'612.2
2018-Mar-03 08:01N 33°46' E 132°00'1613.9
2018-Mar-03 06:50N 33°50' E 132°19'1114.6
2018-Mar-03 06:06N 33°53' E 132°32'415.0
2018-Mar-03 05:49N 33°54' E 132°36'515.6
2018-Mar-03 05:30N 33°57' E 132°41'  
Track history (hours):
 
Tides and Currents Weather Stations Pressure Air Temp Water Temp Dewpoint Dewpoint Depression Visibility Wind Speed Wind Dir Waves Ship Positions

Sincere Salute

Last reported at 2018-Mar-12 00:07 UTC. Time now 2018-May-28 01:23 UTC.
Position N 34°59' E 136°41'.
Warning: this ship's position is months out of date.

Length 228 m; draft 7.9 m.

Type: Ship. MMSI: 432883000.

Date/timePositionNaut miles runAvg speedWind from/ knotsBaromVisibWave heightAir tempDewpointWater temp
2018-Mar-12 00:07N 34°59' E 136°41'0 0.0
2018-Mar-11 23:58N 34°59' E 136°41'0 0.0
2018-Mar-11 23:28N 34°59' E 136°41'0 0.0
2018-Mar-11 22:58N 34°59' E 136°41'0 0.0
2018-Mar-11 22:19N 34°59' E 136°41'0 0.0
2018-Mar-11 21:55N 34°59' E 136°41'0 0.4
2018-Mar-11 21:31N 34°59' E 136°41'2 3.8
2018-Mar-11 21:00N 34°58' E 136°43'4 8.1
2018-Mar-11 20:31N 34°54' E 136°43'510.3
2018-Mar-11 20:00N 34°50' E 136°46'510.2
2018-Mar-11 19:31N 34°45' E 136°49'510.5
2018-Mar-11 19:00N 34°41' E 136°52'810.2
2018-Mar-11 18:14N 34°35' E 136°59'210.1
2018-Mar-11 18:01N 34°33' E 137°01'6 8.7
2018-Mar-11 17:16N 34°28' E 137°05'12 5.3
2018-Mar-11 14:59N 34°16' E 137°05'261 8.6
2018-Mar-10 08:39N 33°17' E 131°59'914.4
2018-Mar-10 08:02N 33°25' E 131°55'115.0
2018-Mar-10 07:57N 33°26' E 131°54'715.1
2018-Mar-10 07:30N 33°33' E 131°52'715.0
2018-Mar-10 07:00N 33°40' E 131°50'714.8
2018-Mar-10 06:30N 33°47' E 131°47'714.5
2018-Mar-10 06:00N 33°54' E 131°45'612.0
2018-Mar-10 05:30N 34°00' E 131°45'2 3.7
2018-Mar-10 04:59N 34°02' E 131°47'0 0.0
2018-Mar-10 02:49N 34°02' E 131°47'0 0.0
2018-Mar-10 01:19N 34°02' E 131°47'0 0.0
2018-Mar-10 00:49N 34°02' E 131°47'0 0.0
2018-Mar-09 23:37N 34°02' E 131°47'0 0.0
2018-Mar-09 23:25N 34°02' E 131°47'0 0.0
2018-Mar-09 21:37N 34°02' E 131°47'0 0.0
2018-Mar-09 21:25N 34°02' E 131°47'0 0.0
2018-Mar-09 20:55N 34°02' E 131°47'0 0.0
2018-Mar-09 19:43N 34°02' E 131°47'0 0.0
2018-Mar-09 19:13N 34°02' E 131°47'0 0.0
2018-Mar-09 18:55N 34°02' E 131°47'0 0.0
2018-Mar-09 18:25N 34°02' E 131°47'0 0.0
2018-Mar-09 17:07N 34°02' E 131°47'0 0.0
2018-Mar-09 16:37N 34°02' E 131°47'0 0.0
2018-Mar-09 16:13N 34°02' E 131°47'0 0.0
2018-Mar-09 15:49N 34°02' E 131°47'0 0.0
2018-Mar-09 15:19N 34°02' E 131°47'0 0.0
2018-Mar-09 14:55N 34°02' E 131°47'0 0.0
2018-Mar-09 14:25N 34°02' E 131°47'0 0.0
2018-Mar-09 13:25N 34°02' E 131°47'0 0.0
2018-Mar-09 12:19N 34°02' E 131°47'0 0.0
2018-Mar-09 11:49N 34°02' E 131°47'0 0.0
2018-Mar-09 11:25N 34°02' E 131°47'0 0.0
2018-Mar-09 09:49N 34°02' E 131°47'0 0.0
2018-Mar-09 08:55N 34°02' E 131°47'0 0.0
2018-Mar-09 08:25N 34°02' E 131°47'0 0.0
2018-Mar-09 07:55N 34°02' E 131°47'0 0.0
2018-Mar-09 07:25N 34°02' E 131°47'0 0.0
2018-Mar-09 06:49N 34°02' E 131°47'0 0.0
2018-Mar-09 06:25N 34°02' E 131°47'0 0.0
2018-Mar-09 05:55N 34°02' E 131°47'0 0.0
2018-Mar-09 05:13N 34°02' E 131°47'0 0.0
2018-Mar-09 04:55N 34°02' E 131°47'0 0.0
2018-Mar-09 03:13N 34°02' E 131°47'0 0.0
2018-Mar-09 02:55N 34°02' E 131°47'0 0.0
2018-Mar-09 02:25N 34°02' E 131°47'0 0.0
2018-Mar-09 01:55N 34°02' E 131°47'0 0.0
2018-Mar-09 01:25N 34°02' E 131°47'0 0.0
2018-Mar-09 00:31N 34°02' E 131°47'0 0.0
2018-Mar-09 00:19N 34°02' E 131°47'0 0.0
2018-Mar-08 23:49N 34°02' E 131°47'0 0.0
2018-Mar-08 23:13N 34°02' E 131°47'0 0.0
2018-Mar-08 22:37N 34°02' E 131°47'0 0.0
2018-Mar-08 22:07N 34°02' E 131°47'0 0.0
2018-Mar-08 21:49N 34°02' E 131°47'0 0.0
2018-Mar-08 21:25N 34°02' E 131°47'0 0.0
2018-Mar-08 20:25N 34°02' E 131°47'0 0.0
2018-Mar-07 21:13N 34°02' E 131°47'0 0.0
2018-Mar-07 20:55N 34°02' E 131°47'0 0.0
2018-Mar-07 20:07N 34°02' E 131°47'0 0.0
2018-Mar-07 19:37N 34°02' E 131°47'0 0.0
2018-Mar-07 19:25N 34°02' E 131°47'0 0.0
2018-Mar-07 17:01N 34°02' E 131°47'0 0.0
2018-Mar-07 16:55N 34°02' E 131°47'0 0.0
2018-Mar-07 14:37N 34°02' E 131°47'0 0.0
2018-Mar-07 14:25N 34°02' E 131°47'0 0.0
2018-Mar-07 13:55N 34°02' E 131°47'0 0.0
2018-Mar-07 13:01N 34°02' E 131°47'0 0.0
2018-Mar-07 12:01N 34°02' E 131°47'0 0.0
2018-Mar-07 11:55N 34°02' E 131°47'0 0.0
2018-Mar-07 11:19N 34°02' E 131°47'0 0.0
2018-Mar-07 10:55N 34°02' E 131°47'0 0.0
2018-Mar-07 10:01N 34°02' E 131°47'0 0.0
2018-Mar-07 09:43N 34°02' E 131°47'0 0.0
2018-Mar-07 09:25N 34°02' E 131°47'0 0.0
2018-Mar-07 07:37N 34°02' E 131°47'0 0.0
2018-Mar-07 07:13N 34°02' E 131°47'0 0.0
2018-Mar-07 06:59N 34°02' E 131°47'2 4.1
2018-Mar-07 06:30N 34°00' E 131°45'2 4.8
2018-Mar-07 06:00N 33°58' E 131°46'0 0.1
2018-Mar-07 05:30N 33°58' E 131°46'0 0.1
2018-Mar-07 04:57N 33°58' E 131°46'0 0.1
2018-Mar-07 04:27N 33°58' E 131°46'0 0.1
2018-Mar-07 03:33N 33°58' E 131°46'0 0.0
2018-Mar-07 03:27N 33°58' E 131°46'0 0.0
2018-Mar-07 01:57N 33°58' E 131°46'0 0.0
2018-Mar-07 01:18N 33°58' E 131°46'0 0.0
2018-Mar-07 00:57N 33°58' E 131°46'0 0.0
2018-Mar-07 00:27N 33°58' E 131°46'0 0.0
2018-Mar-06 23:45N 33°58' E 131°46'0 0.0
2018-Mar-06 23:27N 33°58' E 131°46'0 0.0
2018-Mar-06 22:57N 33°58' E 131°46'0 0.0
2018-Mar-06 22:27N 33°58' E 131°46'0 0.0
2018-Mar-06 21:57N 33°58' E 131°46'0 0.0
2018-Mar-06 21:30N 33°58' E 131°46'0 0.1
2018-Mar-06 20:42N 33°58' E 131°46'0 0.3
2018-Mar-06 20:30N 33°58' E 131°46'0 0.1
2018-Mar-06 19:39N 33°58' E 131°46'0 0.0
2018-Mar-06 19:27N 33°58' E 131°46'0 0.0
2018-Mar-06 19:00N 33°58' E 131°46'0 0.0
2018-Mar-06 18:30N 33°58' E 131°46'0 0.0
2018-Mar-06 17:57N 33°58' E 131°46'0 0.0
2018-Mar-06 17:27N 33°58' E 131°46'0 0.0
2018-Mar-06 16:57N 33°58' E 131°46'0 0.0
2018-Mar-06 16:27N 33°58' E 131°46'0 0.0
2018-Mar-06 15:57N 33°58' E 131°46'0 0.2
2018-Mar-06 15:30N 33°58' E 131°46'0 0.1
2018-Mar-06 14:57N 33°58' E 131°46'0 0.1
2018-Mar-06 14:30N 33°58' E 131°46'0 0.0
2018-Mar-06 13:57N 33°58' E 131°46'0 0.1
2018-Mar-06 13:15N 33°58' E 131°46'0 0.0
2018-Mar-06 12:57N 33°58' E 131°46'0 0.1
2018-Mar-06 11:57N 33°58' E 131°46'0 0.1
2018-Mar-06 11:18N 33°58' E 131°46'0 0.0
2018-Mar-06 11:00N 33°58' E 131°46'0 0.1
2018-Mar-06 10:27N 33°58' E 131°46'0 0.1
2018-Mar-06 09:51N 33°58' E 131°46'0 0.1
2018-Mar-06 09:30N 33°58' E 131°46'0 0.1
2018-Mar-06 09:00N 33°58' E 131°46'0 0.0
2018-Mar-06 08:27N 33°58' E 131°46'0 0.1
2018-Mar-06 07:54N 33°58' E 131°46'0 0.0
2018-Mar-06 07:27N 33°58' E 131°46'0 0.0
2018-Mar-06 06:57N 33°58' E 131°46'0 0.0
2018-Mar-06 06:30N 33°58' E 131°46'0 0.0
2018-Mar-06 05:54N 33°58' E 131°46'0 0.1
2018-Mar-06 05:30N 33°58' E 131°46'0 0.0
2018-Mar-06 05:00N 33°58' E 131°46'0 0.0
2018-Mar-06 04:30N 33°58' E 131°46'0 0.0
2018-Mar-06 04:00N 33°58' E 131°46'0 0.0
2018-Mar-06 03:30N 33°58' E 131°46'0 0.1
2018-Mar-06 02:57N 33°58' E 131°46'0 0.0
2018-Mar-06 02:30N 33°58' E 131°46'0 0.1
2018-Mar-06 01:57N 33°58' E 131°46'0 0.1
2018-Mar-06 01:27N 33°58' E 131°46'0 0.1
2018-Mar-06 00:57N 33°58' E 131°46'0 0.0
2018-Mar-06 00:09N 33°58' E 131°46'0 0.0
2018-Mar-05 23:57N 33°58' E 131°46'0 0.0
2018-Mar-05 23:27N 33°58' E 131°46'0 0.1
2018-Mar-05 22:57N 33°58' E 131°46'0 0.2
2018-Mar-05 22:27N 33°58' E 131°46'0 0.1
2018-Mar-05 21:57N 33°58' E 131°46'0 0.0
2018-Mar-05 21:21N 33°58' E 131°46'0 0.0
2018-Mar-05 20:57N 33°58' E 131°46'0 0.1
2018-Mar-05 20:27N 33°58' E 131°46'0 0.0
2018-Mar-05 20:00N 33°58' E 131°46'0 0.1
2018-Mar-05 19:30N 33°58' E 131°46'0 0.0
2018-Mar-05 19:00N 33°58' E 131°46'0 0.0
2018-Mar-05 18:30N 33°58' E 131°46'0 0.0
2018-Mar-05 17:57N 33°58' E 131°46'0 0.0
2018-Mar-05 17:27N 33°58' E 131°46'0 0.0
2018-Mar-05 16:57N 33°58' E 131°46'0 0.1
2018-Mar-05 16:27N 33°58' E 131°46'0 0.0
2018-Mar-05 15:57N 33°58' E 131°46'0 0.0
2018-Mar-05 15:30N 33°58' E 131°46'0 0.1
2018-Mar-05 14:57N 33°58' E 131°46'0 0.1
2018-Mar-05 14:27N 33°58' E 131°46'0 0.1
2018-Mar-05 13:57N 33°58' E 131°46'0 0.0
2018-Mar-05 13:30N 33°58' E 131°46'0 0.0
2018-Mar-05 12:57N 33°58' E 131°46'0 0.0
2018-Mar-05 12:27N 33°58' E 131°46'0 0.0
2018-Mar-05 11:57N 33°58' E 131°46'0 0.0
2018-Mar-05 11:27N 33°58' E 131°46'0 0.0
2018-Mar-05 10:57N 33°58' E 131°46'0 0.1
2018-Mar-05 10:30N 33°58' E 131°46'0 0.2
2018-Mar-05 09:57N 33°58' E 131°46'0 0.1
2018-Mar-05 09:27N 33°58' E 131°46'0 0.1
2018-Mar-05 08:48N 33°58' E 131°46'0 0.0
2018-Mar-05 08:30N 33°58' E 131°46'0 0.0
2018-Mar-05 07:57N 33°58' E 131°46'0 0.0
2018-Mar-05 07:27N 33°58' E 131°46'0 0.1
2018-Mar-05 06:54N 33°58' E 131°46'0 0.0
2018-Mar-05 06:27N 33°58' E 131°46'0 0.1
2018-Mar-05 05:57N 33°58' E 131°46'0 0.0
2018-Mar-05 05:21N 33°58' E 131°46'0 0.0
2018-Mar-05 04:57N 33°58' E 131°46'0 0.1
2018-Mar-05 04:30N 33°58' E 131°46'0 0.0
2018-Mar-05 03:57N 33°58' E 131°46'0 0.3
2018-Mar-05 03:30N 33°58' E 131°46'0 0.2
2018-Mar-05 02:57N 33°58' E 131°46'0 0.2
2018-Mar-05 02:30N 33°58' E 131°46'0 0.0
2018-Mar-05 02:00N 33°58' E 131°46'0 0.2
2018-Mar-05 01:21N 33°58' E 131°46'0 0.0
2018-Mar-04 22:51N 33°58' E 131°46'0 0.0
2018-Mar-04 22:21N 33°58' E 131°46'0 0.0
2018-Mar-04 21:57N 33°58' E 131°46'0 0.0
2018-Mar-04 19:03N 33°58' E 131°46'0 0.0
2018-Mar-04 18:57N 33°58' E 131°46'0 0.0
2018-Mar-04 18:09N 33°58' E 131°46'0 0.2
2018-Mar-04 17:51N 33°58' E 131°46'0 0.0
2018-Mar-04 08:21N 33°58' E 131°46'0 0.1
2018-Mar-04 06:51N 33°58' E 131°46'0 0.3
2018-Mar-04 06:27N 33°58' E 131°46'0 0.1
2018-Mar-04 05:57N 33°58' E 131°46'0 0.0
2018-Mar-04 05:27N 33°58' E 131°46'0 0.0
2018-Mar-04 04:57N 33°58' E 131°46'0 0.1
2018-Mar-04 04:27N 33°58' E 131°46'0 0.1
2018-Mar-04 03:45N 33°58' E 131°46'0 0.0
2018-Mar-04 03:15N 33°58' E 131°46'0 0.2
2018-Mar-04 02:57N 33°58' E 131°46'0 0.2
2018-Mar-04 02:27N 33°58' E 131°46'0 0.0
2018-Mar-03 22:03N 33°58' E 131°46'0 0.5
2018-Mar-03 21:57N 33°58' E 131°46'0 0.0
2018-Mar-03 21:27N 33°58' E 131°46'0 0.0
2018-Mar-03 20:57N 33°58' E 131°46'0 0.0
2018-Mar-03 20:09N 33°58' E 131°46'0 0.3
2018-Mar-03 19:57N 33°58' E 131°46'0 0.3
2018-Mar-03 19:27N 33°58' E 131°46'0 0.1
2018-Mar-03 18:57N 33°58' E 131°46'0 0.0
2018-Mar-03 18:30N 33°58' E 131°46'0 0.0
2018-Mar-03 17:45N 33°58' E 131°46'0 0.0
2018-Mar-03 17:27N 33°58' E 131°46'0 0.0
2018-Mar-03 16:57N 33°58' E 131°46'0 0.1
2018-Mar-03 16:27N 33°58' E 131°46'0 0.0
2018-Mar-03 15:57N 33°58' E 131°46'0 0.1
2018-Mar-03 15:18N 33°58' E 131°46'0 0.3
2018-Mar-03 15:00N 33°58' E 131°46'0 0.1
2018-Mar-03 14:15N 33°58' E 131°46'0 0.2
2018-Mar-03 13:57N 33°58' E 131°46'0 0.2
2018-Mar-03 13:28N 33°58' E 131°46'0 0.0
2018-Mar-03 12:06N 33°58' E 131°46'0 0.0
2018-Mar-03 12:00N 33°58' E 131°46'0 0.0
2018-Mar-03 11:30N 33°58' E 131°46'0 0.0
2018-Mar-03 11:00N 33°58' E 131°46'0 0.0
2018-Mar-03 10:30N 33°58' E 131°46'0 0.0
2018-Mar-03 10:00N 33°58' E 131°46'0 0.9
2018-Mar-03 09:30N 33°58' E 131°46'4 7.7
2018-Mar-03 09:00N 33°54' E 131°49'714.1
2018-Mar-03 08:30N 33°49' E 131°54'612.2
2018-Mar-03 08:01N 33°46' E 132°00'1613.9
2018-Mar-03 06:50N 33°50' E 132°19'1114.6
2018-Mar-03 06:06N 33°53' E 132°32'415.0
2018-Mar-03 05:49N 33°54' E 132°36'515.6
2018-Mar-03 05:30N 33°57' E 132°41'  

Dump ship's entire track history